sensor_id;sensor_type;location;lat;lon;timestamp;P1;P2;P0
14880;PMS7003;7533;51.278;12.588;2023-06-22T00:05:00;5.75;5.75;3.75
14880;PMS7003;7533;51.278;12.588;2023-06-22T00:10:04;5.75;5.50;3.00
14880;PMS7003;7533;51.278;12.588;2023-06-22T00:15:08;6.25;5.50;3.00
14880;PMS7003;7533;51.278;12.588;2023-06-22T00:20:11;4.75;4.50;2.75
14880;PMS7003;7533;51.278;12.588;2023-06-22T00:25:17;5.25;4.25;3.00
14880;PMS7003;7533;51.278;12.588;2023-06-22T00:30:20;5.00;4.25;2.00
14880;PMS7003;7533;51.278;12.588;2023-06-22T00:35:22;6.50;6.25;3.50
14880;PMS7003;7533;51.278;12.588;2023-06-22T00:40:31;5.25;5.00;3.00
14880;PMS7003;7533;51.278;12.588;2023-06-22T00:45:36;6.75;5.00;2.75
14880;PMS7003;7533;51.278;12.588;2023-06-22T00:50:39;4.00;4.00;3.00
14880;PMS7003;7533;51.278;12.588;2023-06-22T00:55:44;6.75;5.50;3.00
14880;PMS7003;7533;51.278;12.588;2023-06-22T01:00:48;9.00;7.00;5.00
14880;PMS7003;7533;51.278;12.588;2023-06-22T01:05:51;6.25;6.25;3.00
14880;PMS7003;7533;51.278;12.588;2023-06-22T01:11:05;6.50;5.75;2.75
14880;PMS7003;7533;51.278;12.588;2023-06-22T01:16:12;6.50;6.50;3.50
14880;PMS7003;7533;51.278;12.588;2023-06-22T01:21:22;7.00;5.50;3.00
14880;PMS7003;7533;51.278;12.588;2023-06-22T01:26:33;10.50;7.25;5.00
14880;PMS7003;7533;51.278;12.588;2023-06-22T01:31:43;8.75;6.75;4.00
14880;PMS7003;7533;51.278;12.588;2023-06-22T01:36:47;4.00;3.00;2.50
14880;PMS7003;7533;51.278;12.588;2023-06-22T01:41:51;5.75;4.25;2.75
14880;PMS7003;7533;51.278;12.588;2023-06-22T01:46:58;6.25;6.25;4.00
14880;PMS7003;7533;51.278;12.588;2023-06-22T01:52:02;9.25;6.25;3.50
14880;PMS7003;7533;51.278;12.588;2023-06-22T01:57:05;8.50;6.00;3.50
14880;PMS7003;7533;51.278;12.588;2023-06-22T02:02:10;6.25;4.50;2.00
14880;PMS7003;7533;51.278;12.588;2023-06-22T02:07:17;8.00;8.00;4.75
14880;PMS7003;7533;51.278;12.588;2023-06-22T02:12:23;5.25;4.75;3.00
14880;PMS7003;7533;51.278;12.588;2023-06-22T02:17:30;5.75;5.25;3.00
14880;PMS7003;7533;51.278;12.588;2023-06-22T02:22:35;7.25;6.00;3.25
14880;PMS7003;7533;51.278;12.588;2023-06-22T02:27:38;7.50;7.50;4.00
14880;PMS7003;7533;51.278;12.588;2023-06-22T02:32:44;7.50;6.00;3.25
14880;PMS7003;7533;51.278;12.588;2023-06-22T02:37:49;8.25;6.00;3.00
14880;PMS7003;7533;51.278;12.588;2023-06-22T02:42:53;11.25;6.25;4.00
14880;PMS7003;7533;51.278;12.588;2023-06-22T02:47:57;6.50;6.50;3.50
14880;PMS7003;7533;51.278;12.588;2023-06-22T02:53:01;6.50;6.50;3.50
14880;PMS7003;7533;51.278;12.588;2023-06-22T02:58:09;7.00;5.50;3.00
14880;PMS7003;7533;51.278;12.588;2023-06-22T03:03:14;5.75;5.75;3.50
14880;PMS7003;7533;51.278;12.588;2023-06-22T03:08:17;8.00;6.50;4.00
14880;PMS7003;7533;51.278;12.588;2023-06-22T03:13:20;6.50;4.75;3.00
14880;PMS7003;7533;51.278;12.588;2023-06-22T03:18:24;5.50;5.50;4.00
14880;PMS7003;7533;51.278;12.588;2023-06-22T03:23:27;7.75;7.00;3.00
14880;PMS7003;7533;51.278;12.588;2023-06-22T03:28:30;8.50;6.00;3.50
14880;PMS7003;7533;51.278;12.588;2023-06-22T03:33:34;8.00;7.00;4.00
14880;PMS7003;7533;51.278;12.588;2023-06-22T03:38:37;8.25;7.75;4.75
14880;PMS7003;7533;51.278;12.588;2023-06-22T03:43:43;10.00;8.00;5.00
14880;PMS7003;7533;51.278;12.588;2023-06-22T03:48:47;11.25;8.75;5.00
14880;PMS7003;7533;51.278;12.588;2023-06-22T03:53:50;8.25;7.25;4.75
14880;PMS7003;7533;51.278;12.588;2023-06-22T03:58:53;8.00;7.50;4.50
14880;PMS7003;7533;51.278;12.588;2023-06-22T04:03:57;9.50;7.00;5.00
14880;PMS7003;7533;51.278;12.588;2023-06-22T04:09:00;11.00;8.50;5.00
14880;PMS7003;7533;51.278;12.588;2023-06-22T04:14:03;10.75;9.75;5.25
14880;PMS7003;7533;51.278;12.588;2023-06-22T04:19:08;8.75;7.50;5.25
14880;PMS7003;7533;51.278;12.588;2023-06-22T04:24:15;8.25;7.50;5.00
14880;PMS7003;7533;51.278;12.588;2023-06-22T04:29:18;10.25;9.75;5.50
14880;PMS7003;7533;51.278;12.588;2023-06-22T04:34:22;8.25;7.00;3.75
14880;PMS7003;7533;51.278;12.588;2023-06-22T04:39:27;12.00;10.75;6.00
14880;PMS7003;7533;51.278;12.588;2023-06-22T04:44:30;11.50;11.00;6.00
14880;PMS7003;7533;51.278;12.588;2023-06-22T04:49:35;9.50;8.50;5.00
14880;PMS7003;7533;51.278;12.588;2023-06-22T04:54:39;9.25;6.50;3.25
14880;PMS7003;7533;51.278;12.588;2023-06-22T04:59:49;9.75;8.50;4.50
14880;PMS7003;7533;51.278;12.588;2023-06-22T05:04:53;8.00;7.25;4.00
14880;PMS7003;7533;51.278;12.588;2023-06-22T05:09:58;9.75;8.00;4.00
14880;PMS7003;7533;51.278;12.588;2023-06-22T05:15:01;10.00;9.00;4.00
14880;PMS7003;7533;51.278;12.588;2023-06-22T05:20:06;8.00;8.00;5.00
14880;PMS7003;7533;51.278;12.588;2023-06-22T05:25:10;10.25;8.75;4.75
14880;PMS7003;7533;51.278;12.588;2023-06-22T05:30:14;8.25;7.50;4.50
14880;PMS7003;7533;51.278;12.588;2023-06-22T05:35:21;9.00;9.00;5.00
14880;PMS7003;7533;51.278;12.588;2023-06-22T05:40:23;12.75;11.75;6.25
14880;PMS7003;7533;51.278;12.588;2023-06-22T05:45:27;11.00;11.00;6.00
14880;PMS7003;7533;51.278;12.588;2023-06-22T05:50:31;10.75;10.25;7.25
14880;PMS7003;7533;51.278;12.588;2023-06-22T05:55:34;10.50;10.00;6.00
14880;PMS7003;7533;51.278;12.588;2023-06-22T06:00:37;11.00;9.00;6.00
14880;PMS7003;7533;51.278;12.588;2023-06-22T06:05:42;8.50;8.50;5.00
14880;PMS7003;7533;51.278;12.588;2023-06-22T06:10:46;11.25;9.00;5.00
14880;PMS7003;7533;51.278;12.588;2023-06-22T06:15:48;10.25;8.25;6.00
14880;PMS7003;7533;51.278;12.588;2023-06-22T06:20:54;9.75;8.50;6.00
14880;PMS7003;7533;51.278;12.588;2023-06-22T06:25:57;6.75;6.75;4.25
14880;PMS7003;7533;51.278;12.588;2023-06-22T06:31:00;9.25;9.00;5.75
14880;PMS7003;7533;51.278;12.588;2023-06-22T06:36:04;9.50;9.00;5.00
14880;PMS7003;7533;51.278;12.588;2023-06-22T06:41:10;10.75;9.00;5.00
14880;PMS7003;7533;51.278;12.588;2023-06-22T06:46:13;7.00;6.25;3.75
14880;PMS7003;7533;51.278;12.588;2023-06-22T06:51:17;9.25;7.75;5.00
14880;PMS7003;7533;51.278;12.588;2023-06-22T06:56:20;9.75;7.25;4.75
14880;PMS7003;7533;51.278;12.588;2023-06-22T07:01:23;11.50;8.00;5.00
14880;PMS7003;7533;51.278;12.588;2023-06-22T07:06:28;11.25;9.50;6.00
14880;PMS7003;7533;51.278;12.588;2023-06-22T07:11:33;9.75;8.00;4.75
14880;PMS7003;7533;51.278;12.588;2023-06-22T07:16:38;8.25;8.00;5.00
14880;PMS7003;7533;51.278;12.588;2023-06-22T07:21:43;8.75;7.00;4.75
14880;PMS7003;7533;51.278;12.588;2023-06-22T07:26:46;9.00;9.00;4.75
14880;PMS7003;7533;51.278;12.588;2023-06-22T07:31:49;10.50;8.25;4.50
14880;PMS7003;7533;51.278;12.588;2023-06-22T07:36:55;8.75;7.75;5.00
14880;PMS7003;7533;51.278;12.588;2023-06-22T07:41:57;11.50;11.00;6.00
14880;PMS7003;7533;51.278;12.588;2023-06-22T07:47:01;8.00;8.00;4.50
14880;PMS7003;7533;51.278;12.588;2023-06-22T07:52:05;13.00;9.25;5.25
14880;PMS7003;7533;51.278;12.588;2023-06-22T07:57:09;10.00;8.50;5.50
14880;PMS7003;7533;51.278;12.588;2023-06-22T08:02:11;10.25;7.50;5.00
14880;PMS7003;7533;51.278;12.588;2023-06-22T08:07:16;7.75;6.50;4.00
14880;PMS7003;7533;51.278;12.588;2023-06-22T08:12:21;11.00;10.25;5.25
14880;PMS7003;7533;51.278;12.588;2023-06-22T08:17:24;9.50;9.50;6.00
14880;PMS7003;7533;51.278;12.588;2023-06-22T08:22:29;9.00;7.25;4.00
14880;PMS7003;7533;51.278;12.588;2023-06-22T08:27:31;15.75;8.50;5.00
14880;PMS7003;7533;51.278;12.588;2023-06-22T08:32:34;10.00;9.00;5.50
14880;PMS7003;7533;51.278;12.588;2023-06-22T08:37:39;10.50;9.50;5.00
14880;PMS7003;7533;51.278;12.588;2023-06-22T08:42:42;5.75;5.75;3.50
14880;PMS7003;7533;51.278;12.588;2023-06-22T08:47:45;9.75;7.00;4.00
14880;PMS7003;7533;51.278;12.588;2023-06-22T08:52:49;7.50;6.00;3.75
14880;PMS7003;7533;51.278;12.588;2023-06-22T08:57:52;7.50;7.50;4.00
14880;PMS7003;7533;51.278;12.588;2023-06-22T09:02:56;10.00;9.00;5.00
14880;PMS7003;7533;51.278;12.588;2023-06-22T09:08:02;8.75;7.50;4.50
14880;PMS7003;7533;51.278;12.588;2023-06-22T09:13:05;7.75;7.75;4.50
14880;PMS7003;7533;51.278;12.588;2023-06-22T09:18:09;9.50;8.75;5.00
14880;PMS7003;7533;51.278;12.588;2023-06-22T09:23:14;7.50;6.50;4.50
14880;PMS7003;7533;51.278;12.588;2023-06-22T09:28:17;9.00;7.00;4.00
14880;PMS7003;7533;51.278;12.588;2023-06-22T09:33:20;10.50;7.50;4.00
14880;PMS7003;7533;51.278;12.588;2023-06-22T09:38:24;10.50;9.00;5.25
14880;PMS7003;7533;51.278;12.588;2023-06-22T09:43:27;7.75;7.50;4.00
14880;PMS7003;7533;51.278;12.588;2023-06-22T09:48:30;7.75;7.25;6.00
14880;PMS7003;7533;51.278;12.588;2023-06-22T09:53:35;8.00;8.00;5.00
14880;PMS7003;7533;51.278;12.588;2023-06-22T09:58:39;7.00;7.00;4.00
14880;PMS7003;7533;51.278;12.588;2023-06-22T10:03:42;8.50;7.25;4.00
14880;PMS7003;7533;51.278;12.588;2023-06-22T10:08:46;6.75;6.75;3.50
14880;PMS7003;7533;51.278;12.588;2023-06-22T10:13:50;9.00;8.50;4.75
14880;PMS7003;7533;51.278;12.588;2023-06-22T10:18:53;7.75;6.25;4.00
14880;PMS7003;7533;51.278;12.588;2023-06-22T10:23:57;9.50;8.00;5.50
14880;PMS7003;7533;51.278;12.588;2023-06-22T10:29:07;9.25;8.75;5.00
14880;PMS7003;7533;51.278;12.588;2023-06-22T10:34:13;7.75;6.00;4.00
14880;PMS7003;7533;51.278;12.588;2023-06-22T10:39:17;7.25;6.00;3.25
14880;PMS7003;7533;51.278;12.588;2023-06-22T10:44:20;11.00;7.25;4.00
14880;PMS7003;7533;51.278;12.588;2023-06-22T10:49:23;6.25;6.25;3.50
14880;PMS7003;7533;51.278;12.588;2023-06-22T10:54:28;7.25;6.50;4.00
14880;PMS7003;7533;51.278;12.588;2023-06-22T10:59:32;6.00;6.00;3.25
14880;PMS7003;7533;51.278;12.588;2023-06-22T11:04:35;7.25;6.00;3.00
14880;PMS7003;7533;51.278;12.588;2023-06-22T11:09:39;7.25;7.25;3.75
14880;PMS7003;7533;51.278;12.588;2023-06-22T11:14:42;9.00;7.25;3.75
14880;PMS7003;7533;51.278;12.588;2023-06-22T11:19:45;8.50;8.25;4.00
14880;PMS7003;7533;51.278;12.588;2023-06-22T11:24:50;7.75;7.75;4.00
14880;PMS7003;7533;51.278;12.588;2023-06-22T11:29:53;7.00;5.00;3.50
14880;PMS7003;7533;51.278;12.588;2023-06-22T11:34:56;7.75;7.75;4.25
14880;PMS7003;7533;51.278;12.588;2023-06-22T11:40:00;5.75;5.75;3.25
14880;PMS7003;7533;51.278;12.588;2023-06-22T11:45:08;6.00;5.00;2.00
14880;PMS7003;7533;51.278;12.588;2023-06-22T11:50:11;4.75;4.25;3.00
14880;PMS7003;7533;51.278;12.588;2023-06-22T11:55:16;6.00;6.00;3.00
14880;PMS7003;7533;51.278;12.588;2023-06-22T12:00:19;7.00;6.00;4.00
14880;PMS7003;7533;51.278;12.588;2023-06-22T12:05:25;7.25;5.00;2.75
14880;PMS7003;7533;51.278;12.588;2023-06-22T12:10:30;9.00;5.00;3.00
14880;PMS7003;7533;51.278;12.588;2023-06-22T12:15:34;8.25;6.75;3.00
14880;PMS7003;7533;51.278;12.588;2023-06-22T12:20:37;6.00;6.00;3.00
14880;PMS7003;7533;51.278;12.588;2023-06-22T12:25:41;8.50;6.50;3.00
14880;PMS7003;7533;51.278;12.588;2023-06-22T12:30:44;5.75;5.50;2.50
14880;PMS7003;7533;51.278;12.588;2023-06-22T12:35:47;5.25;5.25;3.25
14880;PMS7003;7533;51.278;12.588;2023-06-22T12:40:53;4.75;4.75;3.00
14880;PMS7003;7533;51.278;12.588;2023-06-22T12:45:56;7.75;4.00;2.00
14880;PMS7003;7533;51.278;12.588;2023-06-22T12:50:59;5.50;4.25;2.00
14880;PMS7003;7533;51.278;12.588;2023-06-22T12:56:04;5.00;4.00;3.00
14880;PMS7003;7533;51.278;12.588;2023-06-22T13:01:07;6.25;5.50;3.00
14880;PMS7003;7533;51.278;12.588;2023-06-22T13:06:10;6.25;4.00;2.00
14880;PMS7003;7533;51.278;12.588;2023-06-22T13:11:14;4.50;4.50;2.50
14880;PMS7003;7533;51.278;12.588;2023-06-22T13:16:17;5.50;4.50;2.25
14880;PMS7003;7533;51.278;12.588;2023-06-22T13:21:20;7.50;6.25;3.75
14880;PMS7003;7533;51.278;12.588;2023-06-22T13:26:25;7.00;5.25;2.50
14880;PMS7003;7533;51.278;12.588;2023-06-22T13:31:29;5.25;4.75;2.75
14880;PMS7003;7533;51.278;12.588;2023-06-22T13:36:33;6.75;5.25;3.00
14880;PMS7003;7533;51.278;12.588;2023-06-22T13:41:37;4.50;4.00;2.00
14880;PMS7003;7533;51.278;12.588;2023-06-22T13:46:40;4.00;4.00;2.75
14880;PMS7003;7533;51.278;12.588;2023-06-22T13:51:43;4.00;3.50;2.00
14880;PMS7003;7533;51.278;12.588;2023-06-22T13:56:47;8.50;6.25;2.25
14880;PMS7003;7533;51.278;12.588;2023-06-22T14:01:50;8.25;6.00;3.75
14880;PMS7003;7533;51.278;12.588;2023-06-22T14:06:54;4.25;4.00;2.00
14880;PMS7003;7533;51.278;12.588;2023-06-22T14:11:59;6.00;5.25;2.00
14880;PMS7003;7533;51.278;12.588;2023-06-22T14:17:06;3.50;3.50;1.75
14880;PMS7003;7533;51.278;12.588;2023-06-22T14:22:09;3.75;3.25;2.00
14880;PMS7003;7533;51.278;12.588;2023-06-22T14:27:13;5.75;5.75;3.00
14880;PMS7003;7533;51.278;12.588;2023-06-22T14:32:16;5.25;5.25;2.50
14880;PMS7003;7533;51.278;12.588;2023-06-22T14:37:19;4.25;4.25;2.25
14880;PMS7003;7533;51.278;12.588;2023-06-22T14:42:23;3.00;3.00;1.50
14880;PMS7003;7533;51.278;12.588;2023-06-22T14:47:28;5.25;3.50;2.50
14880;PMS7003;7533;51.278;12.588;2023-06-22T14:52:31;4.75;4.00;2.50
14880;PMS7003;7533;51.278;12.588;2023-06-22T14:57:35;3.00;3.00;2.00
14880;PMS7003;7533;51.278;12.588;2023-06-22T15:02:38;4.25;4.25;2.00
14880;PMS7003;7533;51.278;12.588;2023-06-22T15:07:43;4.50;3.50;2.00
14880;PMS7003;7533;51.278;12.588;2023-06-22T15:12:47;5.25;4.50;3.00
14880;PMS7003;7533;51.278;12.588;2023-06-22T15:17:50;5.25;3.75;2.00
14880;PMS7003;7533;51.278;12.588;2023-06-22T15:22:53;3.00;2.50;2.00
14880;PMS7003;7533;51.278;12.588;2023-06-22T15:27:57;3.00;3.00;2.00
14880;PMS7003;7533;51.278;12.588;2023-06-22T15:33:00;4.25;4.25;2.00
14880;PMS7003;7533;51.278;12.588;2023-06-22T15:38:04;4.50;3.00;1.50
14880;PMS7003;7533;51.278;12.588;2023-06-22T15:43:10;4.00;3.00;2.00
14880;PMS7003;7533;51.278;12.588;2023-06-22T15:48:15;3.00;3.00;2.00
14880;PMS7003;7533;51.278;12.588;2023-06-22T15:53:18;3.50;3.50;2.00
14880;PMS7003;7533;51.278;12.588;2023-06-22T15:58:42;3.75;3.00;1.00
14880;PMS7003;7533;51.278;12.588;2023-06-22T16:03:45;4.00;3.25;2.00
14880;PMS7003;7533;51.278;12.588;2023-06-22T16:08:50;4.75;3.50;1.25
14880;PMS7003;7533;51.278;12.588;2023-06-22T16:13:58;4.50;3.00;2.25
14880;PMS7003;7533;51.278;12.588;2023-06-22T16:19:01;3.50;3.00;2.00
14880;PMS7003;7533;51.278;12.588;2023-06-22T16:24:04;4.00;4.00;3.00
14880;PMS7003;7533;51.278;12.588;2023-06-22T16:29:09;4.50;4.00;1.75
14880;PMS7003;7533;51.278;12.588;2023-06-22T16:34:12;2.50;2.50;1.50
14880;PMS7003;7533;51.278;12.588;2023-06-22T16:39:16;5.00;3.75;2.00
14880;PMS7003;7533;51.278;12.588;2023-06-22T16:44:20;5.00;3.25;1.75
14880;PMS7003;7533;51.278;12.588;2023-06-22T16:49:23;4.50;3.00;2.00
14880;PMS7003;7533;51.278;12.588;2023-06-22T16:54:27;4.50;4.25;2.00
14880;PMS7003;7533;51.278;12.588;2023-06-22T16:59:32;3.25;2.25;1.25
14880;PMS7003;7533;51.278;12.588;2023-06-22T17:04:35;3.25;3.25;2.00
14880;PMS7003;7533;51.278;12.588;2023-06-22T17:09:42;2.75;2.75;2.00
14880;PMS7003;7533;51.278;12.588;2023-06-22T17:14:50;4.25;3.00;2.00
14880;PMS7003;7533;51.278;12.588;2023-06-22T17:19:54;3.00;2.00;1.00
14880;PMS7003;7533;51.278;12.588;2023-06-22T17:24:57;3.00;2.00;1.00
14880;PMS7003;7533;51.278;12.588;2023-06-22T17:30:06;1.50;1.50;1.00
14880;PMS7003;7533;51.278;12.588;2023-06-22T17:35:11;3.00;3.00;2.00
14880;PMS7003;7533;51.278;12.588;2023-06-22T17:40:14;3.50;2.25;1.00
14880;PMS7003;7533;51.278;12.588;2023-06-22T17:45:20;3.25;2.50;1.00
14880;PMS7003;7533;51.278;12.588;2023-06-22T17:50:24;2.00;2.00;1.00
14880;PMS7003;7533;51.278;12.588;2023-06-22T17:55:27;2.00;2.00;1.00
14880;PMS7003;7533;51.278;12.588;2023-06-22T18:00:32;4.00;3.00;1.00
14880;PMS7003;7533;51.278;12.588;2023-06-22T18:05:36;2.50;2.00;1.00
14880;PMS7003;7533;51.278;12.588;2023-06-22T18:10:40;2.25;2.25;1.25
14880;PMS7003;7533;51.278;12.588;2023-06-22T18:15:46;3.25;3.25;1.25
14880;PMS7003;7533;51.278;12.588;2023-06-22T18:20:50;3.50;3.00;1.00
14880;PMS7003;7533;51.278;12.588;2023-06-22T18:25:54;3.00;2.00;1.50
14880;PMS7003;7533;51.278;12.588;2023-06-22T18:30:59;2.00;1.25;0.00
14880;PMS7003;7533;51.278;12.588;2023-06-22T18:36:04;3.00;3.00;1.00
14880;PMS7003;7533;51.278;12.588;2023-06-22T18:41:19;3.00;2.00;0.75
14880;PMS7003;7533;51.278;12.588;2023-06-22T18:46:32;3.00;3.00;1.50
14880;PMS7003;7533;51.278;12.588;2023-06-22T18:51:48;4.50;2.00;1.50
14880;PMS7003;7533;51.278;12.588;2023-06-22T18:56:53;3.25;3.00;1.25
14880;PMS7003;7533;51.278;12.588;2023-06-22T19:02:00;3.00;3.00;1.00
14880;PMS7003;7533;51.278;12.588;2023-06-22T19:07:04;3.00;1.50;0.50
14880;PMS7003;7533;51.278;12.588;2023-06-22T19:12:18;3.00;3.00;1.50
14880;PMS7003;7533;51.278;12.588;2023-06-22T19:17:23;2.50;2.50;1.50
14880;PMS7003;7533;51.278;12.588;2023-06-22T19:22:40;3.00;2.00;2.00
14880;PMS7003;7533;51.278;12.588;2023-06-22T19:27:47;1.75;1.75;1.00
14880;PMS7003;7533;51.278;12.588;2023-06-22T19:32:55;1.75;1.75;1.00
14880;PMS7003;7533;51.278;12.588;2023-06-22T19:38:07;3.25;3.25;1.25
14880;PMS7003;7533;51.278;12.588;2023-06-22T19:43:10;3.50;3.50;2.75
14880;PMS7003;7533;51.278;12.588;2023-06-22T19:48:16;5.00;3.00;1.50
14880;PMS7003;7533;51.278;12.588;2023-06-22T19:53:20;3.00;3.00;1.75
14880;PMS7003;7533;51.278;12.588;2023-06-22T19:58:24;4.75;4.75;2.00
14880;PMS7003;7533;51.278;12.588;2023-06-22T20:03:28;3.50;2.00;1.25
14880;PMS7003;7533;51.278;12.588;2023-06-22T20:08:41;4.75;3.00;1.75
14880;PMS7003;7533;51.278;12.588;2023-06-22T20:13:48;9.25;7.00;2.75
14880;PMS7003;7533;51.278;12.588;2023-06-22T20:19:13;7.75;5.00;3.75
14880;PMS7003;7533;51.278;12.588;2023-06-22T20:24:17;10.00;8.00;4.75
14880;PMS7003;7533;51.278;12.588;2023-06-22T20:29:24;9.50;8.75;5.00
14880;PMS7003;7533;51.278;12.588;2023-06-22T20:34:33;8.40;8.00;5.80
14880;PMS7003;7533;51.278;12.588;2023-06-22T20:39:37;11.60;9.40;6.80
14880;PMS7003;7533;51.278;12.588;2023-06-22T20:44:40;9.00;9.00;5.40
14880;PMS7003;7533;51.278;12.588;2023-06-22T20:49:49;14.80;13.80;8.00
14880;PMS7003;7533;51.278;12.588;2023-06-22T20:54:52;5.50;3.50;2.00
14880;PMS7003;7533;51.278;12.588;2023-06-22T20:59:55;4.25;3.50;1.75
14880;PMS7003;7533;51.278;12.588;2023-06-22T21:04:59;4.00;4.00;2.00
14880;PMS7003;7533;51.278;12.588;2023-06-22T21:10:03;6.75;5.75;3.00
14880;PMS7003;7533;51.278;12.588;2023-06-22T21:15:06;5.00;4.00;2.00
14880;PMS7003;7533;51.278;12.588;2023-06-22T21:20:11;4.00;3.00;1.00
14880;PMS7003;7533;51.278;12.588;2023-06-22T21:25:15;4.50;4.00;2.25
14880;PMS7003;7533;51.278;12.588;2023-06-22T21:30:17;4.50;4.50;1.00
14880;PMS7003;7533;51.278;12.588;2023-06-22T21:35:22;1.25;1.00;0.00
14880;PMS7003;7533;51.278;12.588;2023-06-22T21:40:25;0.00;0.00;0.00
14880;PMS7003;7533;51.278;12.588;2023-06-22T21:45:27;0.00;0.00;0.00
14880;PMS7003;7533;51.278;12.588;2023-06-22T21:50:32;0.00;0.00;0.00
14880;PMS7003;7533;51.278;12.588;2023-06-22T21:55:36;0.00;0.00;0.00
14880;PMS7003;7533;51.278;12.588;2023-06-22T22:00:39;0.00;0.00;0.00
14880;PMS7003;7533;51.278;12.588;2023-06-22T22:05:43;0.00;0.00;0.00
14880;PMS7003;7533;51.278;12.588;2023-06-22T22:10:47;0.00;0.00;0.00
14880;PMS7003;7533;51.278;12.588;2023-06-22T22:15:50;0.50;0.50;0.00
14880;PMS7003;7533;51.278;12.588;2023-06-22T22:20:54;0.00;0.00;0.00
14880;PMS7003;7533;51.278;12.588;2023-06-22T22:25:57;0.00;0.00;0.00
14880;PMS7003;7533;51.278;12.588;2023-06-22T22:31:00;0.00;0.00;0.00
14880;PMS7003;7533;51.278;12.588;2023-06-22T22:36:05;0.00;0.00;0.00
14880;PMS7003;7533;51.278;12.588;2023-06-22T22:41:08;0.00;0.00;0.00
14880;PMS7003;7533;51.278;12.588;2023-06-22T22:46:11;0.00;0.00;0.00
14880;PMS7003;7533;51.278;12.588;2023-06-22T22:51:15;0.00;0.00;0.00
14880;PMS7003;7533;51.278;12.588;2023-06-22T22:56:19;1.00;0.00;0.00
14880;PMS7003;7533;51.278;12.588;2023-06-22T23:01:21;0.00;0.00;0.00
14880;PMS7003;7533;51.278;12.588;2023-06-22T23:06:26;0.00;0.00;0.00
14880;PMS7003;7533;51.278;12.588;2023-06-22T23:11:28;0.00;0.00;0.00
14880;PMS7003;7533;51.278;12.588;2023-06-22T23:16:32;0.00;0.00;0.00
14880;PMS7003;7533;51.278;12.588;2023-06-22T23:21:36;0.00;0.00;0.00
14880;PMS7003;7533;51.278;12.588;2023-06-22T23:26:39;0.00;0.00;0.00
14880;PMS7003;7533;51.278;12.588;2023-06-22T23:31:42;0.00;0.00;0.00
14880;PMS7003;7533;51.278;12.588;2023-06-22T23:36:46;0.00;0.00;0.00
14880;PMS7003;7533;51.278;12.588;2023-06-22T23:41:49;0.00;0.00;0.00
14880;PMS7003;7533;51.278;12.588;2023-06-22T23:46:52;0.00;0.00;0.00
14880;PMS7003;7533;51.278;12.588;2023-06-22T23:52:01;0.00;0.00;0.00
14880;PMS7003;7533;51.278;12.588;2023-06-22T23:57:05;0.00;0.00;0.00
